createdAt,value
2019-03-16T00:00:00.756Z,4.10
2019-03-16T00:02:26.944Z,4.12
2019-03-16T00:04:53.383Z,4.13
2019-03-16T00:07:32.226Z,4.13
2019-03-16T00:09:47.871Z,4.14
2019-03-16T00:12:14.249Z,4.16
2019-03-16T00:14:42.451Z,4.14
2019-03-16T00:17:10.378Z,4.19
2019-03-16T00:19:36.660Z,4.21
2019-03-16T00:22:02.922Z,4.22
2019-03-16T00:24:29.213Z,4.23
2019-03-16T00:26:55.485Z,4.22
2019-03-16T00:29:21.740Z,4.18
2019-03-16T00:31:50.302Z,4.16
2019-03-16T00:34:16.580Z,4.17
2019-03-16T00:36:42.864Z,4.16
2019-03-16T00:39:09.143Z,4.17
2019-03-16T00:41:35.392Z,4.20
2019-03-16T00:44:01.696Z,4.18
2019-03-16T00:46:27.970Z,4.19
2019-03-16T00:48:54.194Z,4.21
2019-03-16T00:51:20.481Z,4.19
2019-03-16T00:53:46.791Z,4.20
2019-03-16T00:56:13.104Z,4.19
2019-03-16T00:58:39.369Z,4.18
2019-03-16T01:01:05.627Z,4.14
2019-03-16T01:03:31.903Z,4.11
2019-03-16T01:05:58.177Z,4.11
2019-03-16T01:08:24.478Z,4.13
2019-03-16T01:10:50.675Z,4.13
2019-03-16T01:13:16.940Z,4.10
2019-03-16T01:15:43.218Z,4.04
2019-03-16T01:18:09.367Z,3.98
2019-03-16T01:20:35.681Z,3.92
2019-03-16T01:23:01.940Z,3.90
2019-03-16T01:25:28.198Z,3.89
2019-03-16T01:27:54.369Z,3.88
2019-03-16T01:30:20.633Z,3.87
2019-03-16T01:32:46.824Z,3.85
2019-03-16T01:35:14.815Z,3.81
2019-03-16T01:37:41.083Z,3.76
2019-03-16T01:40:08.345Z,3.73
2019-03-16T01:42:34.630Z,3.72
2019-03-16T01:45:00.897Z,3.72
2019-03-16T01:47:27.128Z,3.72
2019-03-16T01:49:53.335Z,3.70
2019-03-16T01:52:19.622Z,3.67
2019-03-16T01:54:45.722Z,3.66
2019-03-16T01:57:12.018Z,3.64
2019-03-16T01:59:38.317Z,3.62
2019-03-16T02:02:04.570Z,3.60
2019-03-16T02:04:30.852Z,3.61
2019-03-16T02:06:57.169Z,3.54
2019-03-16T02:09:26.221Z,3.42
2019-03-16T02:12:00.632Z,3.40
2019-03-16T02:14:27.068Z,3.38
2019-03-16T02:16:53.337Z,3.38
2019-03-16T02:19:19.728Z,3.33
2019-03-16T02:21:46.010Z,3.34
2019-03-16T02:24:12.346Z,3.38
2019-03-16T02:26:38.742Z,3.33
2019-03-16T02:29:05.031Z,3.30
2019-03-16T02:31:34.141Z,3.24
2019-03-16T02:34:00.480Z,3.24
2019-03-16T02:36:27.004Z,3.23
2019-03-16T02:38:57.754Z,3.26
2019-03-16T02:41:21.478Z,3.31
2019-03-16T02:43:47.826Z,3.34
2019-03-16T02:46:14.101Z,3.38
2019-03-16T02:48:40.477Z,3.42
2019-03-16T03:02:27.111Z,3.52
2019-03-16T03:04:53.445Z,3.52
2019-03-16T03:07:19.726Z,3.48
2019-03-16T03:09:46.044Z,3.53
2019-03-16T03:12:12.362Z,3.59
2019-03-16T03:14:38.419Z,3.59
2019-03-16T03:17:04.715Z,3.64
2019-03-16T03:19:31.024Z,3.61
2019-03-16T03:21:57.288Z,3.65
2019-03-16T03:24:23.521Z,3.65
2019-03-16T03:26:49.736Z,3.64
2019-03-16T03:29:16.024Z,3.68
2019-03-16T03:31:42.304Z,3.68
2019-03-16T03:34:08.606Z,3.68
2019-03-16T03:36:34.792Z,3.72
2019-03-16T03:39:01.004Z,3.74
2019-03-16T03:41:27.232Z,3.73
2019-03-16T03:43:53.492Z,3.80
2019-03-16T03:46:19.661Z,3.78
2019-03-16T03:48:45.833Z,3.80
2019-03-16T03:51:12.050Z,3.75
2019-03-16T03:53:41.130Z,3.63
2019-03-16T03:56:06.254Z,3.64
2019-03-16T03:58:32.530Z,3.67
2019-03-16T04:00:58.827Z,3.73
2019-03-16T04:03:25.061Z,3.72
2019-03-16T04:05:51.295Z,3.76
2019-03-16T04:08:21.556Z,3.79
2019-03-16T04:10:50.399Z,3.83
2019-03-16T04:13:16.806Z,3.86
2019-03-16T04:15:42.978Z,3.86
2019-03-16T04:20:44.275Z,3.85
2019-03-16T04:23:10.255Z,3.89
2019-03-16T04:25:36.525Z,3.91
2019-03-16T04:28:02.712Z,3.93
2019-03-16T04:30:28.978Z,3.94
2019-03-16T04:32:55.236Z,3.91
2019-03-16T04:38:07.249Z,3.93
2019-03-16T04:40:33.425Z,3.89
2019-03-16T04:42:59.701Z,3.82
2019-03-16T04:45:25.945Z,3.81
2019-03-16T04:47:52.195Z,3.81
2019-03-16T04:50:18.400Z,3.80
2019-03-16T04:52:44.584Z,3.81
2019-03-16T04:55:10.857Z,3.86
2019-03-16T04:57:37.091Z,3.88
2019-03-16T05:00:11.952Z,3.88
2019-03-16T05:02:38.283Z,3.82
2019-03-16T05:05:04.468Z,3.82
2019-03-16T05:07:30.719Z,3.81
2019-03-16T05:09:57.025Z,3.81
2019-03-16T05:12:23.345Z,3.84
2019-03-16T05:14:49.537Z,3.89
2019-03-16T05:17:15.837Z,3.85
2019-03-16T05:19:42.123Z,3.83
2019-03-16T05:22:08.412Z,3.81
2019-03-16T05:24:34.682Z,3.81
2019-03-16T05:27:00.994Z,3.82
2019-03-16T05:29:27.274Z,3.82
2019-03-16T05:31:53.530Z,3.84
2019-03-16T05:34:22.927Z,3.83
2019-03-16T05:36:48.974Z,3.88
2019-03-16T05:39:15.289Z,3.89
2019-03-16T05:41:41.565Z,3.90
2019-03-16T05:44:07.870Z,3.92
2019-03-16T05:46:34.141Z,3.89
2019-03-16T05:49:00.303Z,3.91
2019-03-16T05:51:26.627Z,3.94
2019-03-16T05:53:52.878Z,3.98
2019-03-16T05:56:19.117Z,4.03
2019-03-16T05:58:45.393Z,4.05
2019-03-16T06:01:11.475Z,4.05
2019-03-16T06:03:37.502Z,4.07
2019-03-16T06:06:05.593Z,4.07
2019-03-16T06:08:31.813Z,4.09
2019-03-16T06:10:57.908Z,4.13
2019-03-16T06:13:24.216Z,4.15
2019-03-16T06:15:50.480Z,4.18
2019-03-16T06:18:16.766Z,4.18
2019-03-16T06:20:43.172Z,4.21
2019-03-16T06:23:09.496Z,4.24
2019-03-16T06:25:35.781Z,4.25
2019-03-16T06:28:01.929Z,4.28
2019-03-16T06:30:28.041Z,4.26
2019-03-16T06:32:54.108Z,4.28
2019-03-16T06:35:25.016Z,4.22
2019-03-16T06:37:48.664Z,4.30
2019-03-16T06:40:14.810Z,4.32
2019-03-16T06:42:41.078Z,4.34
2019-03-16T06:45:08.747Z,4.37
2019-03-16T06:47:34.909Z,4.40
2019-03-16T06:50:01.271Z,4.43
2019-03-16T06:52:27.431Z,4.50
2019-03-16T06:54:53.745Z,4.51
2019-03-16T06:57:20.071Z,4.44
2019-03-16T06:59:46.392Z,4.57
2019-03-16T07:02:12.668Z,4.61
2019-03-16T07:04:40.825Z,4.65
2019-03-16T07:07:07.185Z,4.66
2019-03-16T07:09:33.484Z,4.71
2019-03-16T07:11:59.670Z,4.77
2019-03-16T07:14:25.935Z,4.80
2019-03-16T07:17:01.873Z,4.80
2019-03-16T07:19:24.098Z,4.83
2019-03-16T07:21:50.051Z,4.82
2019-03-16T07:24:16.308Z,4.85
2019-03-16T07:26:42.577Z,4.91
2019-03-16T07:29:09.167Z,4.94
2019-03-16T07:31:36.789Z,4.95
2019-03-16T07:34:03.208Z,5.00
2019-03-16T07:36:29.514Z,5.02
2019-03-16T07:38:55.749Z,5.05
2019-03-16T07:41:22.061Z,5.09
2019-03-16T07:43:48.336Z,5.11
2019-03-16T07:46:16.049Z,5.14
2019-03-16T07:48:42.225Z,5.13
2019-03-16T07:51:08.487Z,5.14
2019-03-16T07:53:34.831Z,5.18
2019-03-16T07:56:01.211Z,5.18
2019-03-16T07:58:27.257Z,5.18
2019-03-16T08:00:53.446Z,5.22
2019-03-16T08:03:19.566Z,5.23
2019-03-16T08:05:45.503Z,5.29
2019-03-16T08:08:11.424Z,5.31
2019-03-16T08:10:37.621Z,5.35
2019-03-16T08:13:03.568Z,5.32
2019-03-16T08:15:29.778Z,5.36
2019-03-16T08:17:55.785Z,5.38
2019-03-16T08:20:21.941Z,5.37
2019-03-16T08:22:50.256Z,5.41
2019-03-16T08:25:16.304Z,5.37
2019-03-16T08:27:53.523Z,5.36
2019-03-16T08:30:10.368Z,5.38
2019-03-16T08:32:36.546Z,5.37
2019-03-16T08:35:03.838Z,5.41
2019-03-16T08:37:29.899Z,5.42
2019-03-16T08:39:55.938Z,5.41
2019-03-16T08:42:22.342Z,5.42
2019-03-16T08:44:48.407Z,5.42
2019-03-16T08:47:14.490Z,5.49
2019-03-16T08:49:40.545Z,5.50
2019-03-16T08:52:06.639Z,5.50
2019-03-16T08:54:32.800Z,5.51
2019-03-16T08:56:58.851Z,5.55
2019-03-16T08:59:24.859Z,5.55
2019-03-16T09:01:51.111Z,5.59
2019-03-16T09:04:17.242Z,5.63
2019-03-16T09:06:43.352Z,5.64
2019-03-16T09:09:09.483Z,5.72
2019-03-16T09:11:35.644Z,5.79
2019-03-16T09:14:05.528Z,5.80
2019-03-16T09:16:31.462Z,5.80
2019-03-16T09:18:57.612Z,5.77
2019-03-16T09:21:23.699Z,5.80
2019-03-16T09:23:49.866Z,5.79
2019-03-16T09:26:16.126Z,5.82
2019-03-16T09:28:42.384Z,5.90
2019-03-16T09:31:08.547Z,5.98
2019-03-16T09:33:34.620Z,6.01
2019-03-16T09:36:00.683Z,6.00
2019-03-16T09:38:26.743Z,6.02
2019-03-16T09:40:53.535Z,6.02
2019-03-16T09:43:19.764Z,6.07
2019-03-16T09:45:46.053Z,6.10
2019-03-16T09:48:12.314Z,6.18
2019-03-16T09:50:38.592Z,6.19
2019-03-16T09:53:04.847Z,6.19
2019-03-16T09:55:35.095Z,6.21
2019-03-16T09:58:00.339Z,6.18
2019-03-16T10:00:29.392Z,6.24
2019-03-16T10:02:55.607Z,6.24
2019-03-16T10:05:21.984Z,6.18
2019-03-16T10:07:48.257Z,6.20
2019-03-16T10:10:14.446Z,6.23
2019-03-16T10:12:40.777Z,6.22
2019-03-16T10:15:12.102Z,6.22
2019-03-16T10:17:38.302Z,6.28
2019-03-16T10:20:07.291Z,6.36
2019-03-16T10:22:33.620Z,6.41
2019-03-16T10:25:00.179Z,6.42
2019-03-16T10:27:26.749Z,6.43
2019-03-16T10:29:53.101Z,6.47
2019-03-16T10:32:19.407Z,6.50
2019-03-16T10:34:45.737Z,6.52
2019-03-16T10:37:14.145Z,6.50
2019-03-16T10:39:40.370Z,6.54
2019-03-16T10:42:09.405Z,6.56
2019-03-16T10:44:35.689Z,6.55
2019-03-16T10:47:04.006Z,6.50
2019-03-16T10:49:30.386Z,6.45
2019-03-16T10:51:56.698Z,6.51
2019-03-16T10:54:22.947Z,6.53
2019-03-16T10:56:49.117Z,6.63
2019-03-16T10:59:15.920Z,6.76
2019-03-16T11:01:42.122Z,6.85
2019-03-16T11:04:08.458Z,6.90
2019-03-16T11:06:37.089Z,6.90
2019-03-16T11:09:05.406Z,6.79
2019-03-16T11:11:31.619Z,6.70
2019-03-16T11:13:57.922Z,6.70
2019-03-16T11:16:24.623Z,6.75
2019-03-16T11:18:50.881Z,6.86
2019-03-16T11:21:17.159Z,6.89
2019-03-16T11:23:43.476Z,7.06
2019-03-16T11:26:09.764Z,7.14
2019-03-16T11:28:36.072Z,7.18
2019-03-16T11:31:02.403Z,7.02
2019-03-16T11:33:30.069Z,7.08
2019-03-16T11:35:56.439Z,7.05
2019-03-16T11:38:25.615Z,7.02
2019-03-16T11:43:43.735Z,7.00
2019-03-16T11:46:10.138Z,7.05
2019-03-16T11:48:36.438Z,7.01
2019-03-16T11:51:02.687Z,6.93
2019-03-16T11:53:29.091Z,6.94
2019-03-16T11:55:55.425Z,6.98
2019-03-16T11:58:21.605Z,7.01
2019-03-16T12:00:47.891Z,7.08
2019-03-16T12:03:16.526Z,7.20
2019-03-16T12:05:42.771Z,7.31
2019-03-16T12:08:09.119Z,7.35
2019-03-16T12:10:35.161Z,7.33
2019-03-16T12:13:01.491Z,7.52
2019-03-16T12:15:27.798Z,7.59
2019-03-16T12:17:54.070Z,7.62
2019-03-16T12:20:23.287Z,7.62
2019-03-16T12:22:49.531Z,7.52
2019-03-16T12:25:15.811Z,7.55
2019-03-16T12:27:42.112Z,7.53
2019-03-16T12:30:10.346Z,7.49
2019-03-16T12:32:36.610Z,7.55
2019-03-16T12:35:05.615Z,7.64
2019-03-16T12:37:31.824Z,7.69
2019-03-16T12:39:58.217Z,7.78
2019-03-16T12:42:24.511Z,7.67
2019-03-16T12:44:52.700Z,7.70
2019-03-16T12:47:18.929Z,7.75
2019-03-16T12:49:45.562Z,7.70
2019-03-16T12:52:11.843Z,7.59
2019-03-16T12:54:38.088Z,7.64
2019-03-16T12:57:04.553Z,7.65
2019-03-16T12:59:30.888Z,7.52
2019-03-16T13:01:57.115Z,7.53
2019-03-16T13:04:23.237Z,7.46
2019-03-16T13:06:49.542Z,7.53
2019-03-16T13:09:15.818Z,7.61
2019-03-16T13:11:41.889Z,7.71
2019-03-16T13:14:09.461Z,7.68
2019-03-16T13:16:37.344Z,7.73
2019-03-16T13:19:03.578Z,7.87
2019-03-16T13:21:29.838Z,7.85
2019-03-16T13:23:56.127Z,7.89
2019-03-16T13:26:22.451Z,7.98
2019-03-16T13:28:48.831Z,7.91
2019-03-16T13:31:15.165Z,7.95
2019-03-16T13:33:41.503Z,7.99
2019-03-16T13:36:07.774Z,8.07
2019-03-16T13:38:33.988Z,7.98
2019-03-16T13:41:00.578Z,7.89
2019-03-16T13:43:26.926Z,7.91
2019-03-16T13:45:53.301Z,7.96
2019-03-16T13:48:25.623Z,7.97
2019-03-16T13:52:32.987Z,7.99
2019-03-16T13:53:29.237Z,8.04
2019-03-16T13:55:56.109Z,8.01
2019-03-16T13:58:22.456Z,8.05
2019-03-16T14:00:48.716Z,8.08
2019-03-16T14:03:15.234Z,8.14
2019-03-16T14:05:43.401Z,8.16
2019-03-16T14:08:09.725Z,8.10
2019-03-16T14:10:36.012Z,8.06
2019-03-16T14:13:02.285Z,8.07
2019-03-16T14:15:28.535Z,8.04
2019-03-16T14:17:57.775Z,8.04
2019-03-16T14:20:23.128Z,8.07
2019-03-16T14:22:49.555Z,8.09
2019-03-16T14:25:15.793Z,8.12
2019-03-16T14:27:42.108Z,8.12
2019-03-16T14:30:29.156Z,8.03
2019-03-16T14:32:41.769Z,7.94
2019-03-16T14:35:08.279Z,7.91
2019-03-16T14:37:34.593Z,7.94
2019-03-16T14:40:00.852Z,8.00
2019-03-16T14:42:28.437Z,8.01
2019-03-16T14:45:03.632Z,8.02
2019-03-16T14:47:29.995Z,8.02
2019-03-16T14:49:56.164Z,8.03
2019-03-16T14:52:22.412Z,8.00
2019-03-16T14:54:48.618Z,7.89
2019-03-16T14:57:14.923Z,7.84
2019-03-16T14:59:41.255Z,7.87
2019-03-16T15:02:07.525Z,7.92
2019-03-16T15:04:33.771Z,7.89
2019-03-16T15:07:00.045Z,7.83
2019-03-16T15:09:26.314Z,7.91
2019-03-16T15:11:52.606Z,7.98
2019-03-16T15:14:21.780Z,8.02
2019-03-16T15:16:47.171Z,8.00
2019-03-16T15:19:13.454Z,8.03
2019-03-16T15:21:39.811Z,8.04
2019-03-16T15:24:07.940Z,7.99
2019-03-16T15:26:49.175Z,8.06
2019-03-16T15:34:56.950Z,8.03
2019-03-16T15:37:23.224Z,8.02
2019-03-16T15:39:49.453Z,7.99
2019-03-16T15:42:17.623Z,7.95
2019-03-16T15:44:43.995Z,7.93
2019-03-16T15:47:19.334Z,7.85
2019-03-16T15:49:45.673Z,7.86
2019-03-16T15:52:11.977Z,7.88
2019-03-16T15:54:38.359Z,7.86
2019-03-16T15:57:04.646Z,7.85
2019-03-16T15:59:30.992Z,7.80
2019-03-16T16:01:59.415Z,7.84
2019-03-16T16:04:25.745Z,7.83
2019-03-16T16:07:02.862Z,7.81
2019-03-16T16:09:20.592Z,7.74
2019-03-16T16:11:46.920Z,7.74
2019-03-16T16:14:13.267Z,7.69
2019-03-16T16:16:39.606Z,7.61
2019-03-16T16:19:05.895Z,7.57
2019-03-16T16:21:32.224Z,7.54
2019-03-16T16:24:35.525Z,7.53
2019-03-16T16:26:38.926Z,7.51
2019-03-16T16:29:04.906Z,7.49
2019-03-16T16:31:31.192Z,7.47
2019-03-16T16:33:57.505Z,7.49
2019-03-16T16:36:23.852Z,7.49
2019-03-16T16:38:50.136Z,7.48
2019-03-16T16:41:16.420Z,7.45
2019-03-16T16:43:42.596Z,7.38
2019-03-16T16:46:10.716Z,7.30
2019-03-16T16:48:37.062Z,7.27
2019-03-16T16:51:03.355Z,7.21
2019-03-16T16:53:29.969Z,7.15
2019-03-16T16:55:56.470Z,7.16
2019-03-16T16:58:23.022Z,7.15
2019-03-16T17:00:57.055Z,7.11
2019-03-16T17:09:58.094Z,6.87
2019-03-16T17:12:38.443Z,6.80
2019-03-16T17:15:02.236Z,6.78
2019-03-16T17:17:35.740Z,6.72
2019-03-16T17:20:04.048Z,6.69
2019-03-16T17:22:48.832Z,6.66
2019-03-16T17:26:43.740Z,6.64
2019-03-16T17:28:37.427Z,6.58
2019-03-16T17:31:13.118Z,6.52
2019-03-16T17:33:39.865Z,6.50
2019-03-16T17:36:14.573Z,6.50
2019-03-16T17:38:44.506Z,6.42
2019-03-16T17:41:10.769Z,6.46
2019-03-16T17:43:37.125Z,6.43
2019-03-16T17:46:03.190Z,6.44
2019-03-16T17:52:17.101Z,6.36
2019-03-16T17:54:46.204Z,6.32
2019-03-16T17:57:33.282Z,6.38
2019-03-16T17:59:56.235Z,6.36
2019-03-16T18:05:40.405Z,6.41
2019-03-16T18:08:13.124Z,6.44
2019-03-16T18:18:10.238Z,6.39
2019-03-16T18:23:39.843Z,6.42
2019-03-16T18:26:07.866Z,6.43
2019-03-16T18:29:03.649Z,6.45
2019-03-16T18:31:29.821Z,6.31
2019-03-16T18:33:56.114Z,6.39
2019-03-16T18:36:22.386Z,6.40
2019-03-16T18:38:48.664Z,6.44
2019-03-16T18:41:16.355Z,6.46
2019-03-16T18:43:42.697Z,6.46
2019-03-16T18:46:08.865Z,6.48
2019-03-16T18:48:35.047Z,6.48
2019-03-16T18:51:01.333Z,6.49
2019-03-16T18:53:27.498Z,6.47
2019-03-16T18:55:53.727Z,6.49
2019-03-16T18:58:20.041Z,6.51
2019-03-16T19:00:46.377Z,6.51
2019-03-16T19:03:14.375Z,6.51
2019-03-16T19:05:40.387Z,6.44
2019-03-16T19:08:06.341Z,6.47
2019-03-16T19:10:36.240Z,6.49
2019-03-16T19:13:02.449Z,6.50
2019-03-16T19:15:28.620Z,6.53
2019-03-16T19:17:58.917Z,6.55
2019-03-16T19:20:22.935Z,6.57
2019-03-16T19:22:49.652Z,6.55
2019-03-16T19:25:21.206Z,6.53
2019-03-16T19:27:50.701Z,6.49
2019-03-16T19:30:17.063Z,6.52
2019-03-16T19:32:43.356Z,6.55
2019-03-16T19:35:09.558Z,6.54
2019-03-16T19:37:35.735Z,6.59
2019-03-16T19:40:02.003Z,6.58
2019-03-16T19:42:28.252Z,6.61
2019-03-16T19:44:54.642Z,6.64
2019-03-16T19:47:21.067Z,6.64
2019-03-16T19:49:47.349Z,6.63
2019-03-16T19:52:13.515Z,6.66
2019-03-16T19:54:39.720Z,6.66
2019-03-16T19:57:15.258Z,6.65
2019-03-16T19:59:34.364Z,6.66
2019-03-16T20:02:00.711Z,6.65
2019-03-16T20:04:36.015Z,6.59
2019-03-16T20:06:59.087Z,6.62
2019-03-16T20:09:27.898Z,6.60
2019-03-16T20:11:53.967Z,6.50
2019-03-16T20:14:20.216Z,6.58
2019-03-16T20:16:46.367Z,6.57
2019-03-16T20:19:12.460Z,6.56
2019-03-16T20:21:38.539Z,6.52
2019-03-16T20:24:04.560Z,6.55
2019-03-16T20:26:30.804Z,6.55
2019-03-16T20:28:57.050Z,6.55
2019-03-16T20:31:23.289Z,6.55
2019-03-16T20:33:49.378Z,6.52
2019-03-16T20:36:15.670Z,6.50
2019-03-16T20:38:41.954Z,6.48
2019-03-16T20:41:08.215Z,6.47
2019-03-16T20:43:37.728Z,6.47
2019-03-16T20:46:04.001Z,6.45
2019-03-16T20:48:30.282Z,6.45
2019-03-16T20:50:56.518Z,6.44
2019-03-16T20:53:22.877Z,6.43
2019-03-16T20:55:51.316Z,6.39
2019-03-16T20:58:17.330Z,6.35
2019-03-16T21:00:43.594Z,6.24
2019-03-16T21:03:16.509Z,6.26
2019-03-16T21:05:42.987Z,6.19
2019-03-16T21:08:09.118Z,6.20
2019-03-16T21:10:39.808Z,6.20
2019-03-16T21:13:04.592Z,6.19
2019-03-16T21:15:30.924Z,6.21
2019-03-16T21:17:59.681Z,6.13
2019-03-16T21:20:26.090Z,6.10
2019-03-16T21:22:52.359Z,6.12
2019-03-16T21:25:18.504Z,6.10
2019-03-16T21:27:44.842Z,6.13
2019-03-16T21:30:16.109Z,6.16
2019-03-16T21:32:42.264Z,6.18
2019-03-16T21:35:08.543Z,6.17
2019-03-16T21:37:34.672Z,6.15
2019-03-16T21:40:00.987Z,6.13
2019-03-16T21:42:39.679Z,6.12
2019-03-16T21:45:34.272Z,6.13
2019-03-16T21:47:59.378Z,6.10
2019-03-16T21:50:18.693Z,6.11
2019-03-16T21:52:45.168Z,6.12
2019-03-16T21:55:12.067Z,6.11
2019-03-16T21:57:41.216Z,6.10
2019-03-16T22:00:14.487Z,6.08
2019-03-16T22:02:40.742Z,5.99
2019-03-16T22:05:08.015Z,5.89
2019-03-16T22:07:38.403Z,5.91
2019-03-16T22:10:09.290Z,5.88
2019-03-16T22:12:35.471Z,5.85
2019-03-16T22:15:01.623Z,5.88
2019-03-16T22:17:27.698Z,5.92
2019-03-16T22:19:53.948Z,5.92
2019-03-16T22:22:20.036Z,5.92
2019-03-16T22:24:46.115Z,5.95
2019-03-16T22:27:12.264Z,5.93
2019-03-16T22:29:38.454Z,5.92
2019-03-16T22:32:04.579Z,5.93
2019-03-16T22:34:30.767Z,5.95
2019-03-16T22:36:57.029Z,5.93
2019-03-16T22:39:27.507Z,5.95
2019-03-16T22:41:53.719Z,5.93
2019-03-16T22:44:20.021Z,5.90
2019-03-16T22:46:46.134Z,5.91
2019-03-16T22:49:12.315Z,5.92
2019-03-16T22:51:38.551Z,5.90
2019-03-16T22:54:04.746Z,5.90
2019-03-16T22:56:31.006Z,5.89
2019-03-16T22:58:57.179Z,5.91
2019-03-16T23:01:23.443Z,5.89
2019-03-16T23:03:49.715Z,5.86
2019-03-16T23:06:15.768Z,5.74
2019-03-16T23:08:42.056Z,5.69
2019-03-16T23:11:08.216Z,5.65
2019-03-16T23:13:34.380Z,5.63
2019-03-16T23:16:00.448Z,5.66
2019-03-16T23:18:26.638Z,5.68
2019-03-16T23:20:52.869Z,5.68
2019-03-16T23:23:18.920Z,5.70
2019-03-16T23:25:45.166Z,5.71
2019-03-16T23:28:11.420Z,5.70
2019-03-16T23:30:37.606Z,5.72
2019-03-16T23:33:03.947Z,5.75
2019-03-16T23:35:30.272Z,5.75
2019-03-16T23:37:56.605Z,5.75
2019-03-16T23:40:22.967Z,5.76
2019-03-16T23:42:49.359Z,5.76
2019-03-16T23:45:15.746Z,5.74
2019-03-16T23:47:41.946Z,5.73
2019-03-16T23:50:09.769Z,5.74
2019-03-16T23:52:37.200Z,5.76
2019-03-16T23:55:05.174Z,5.78
2019-03-16T23:57:31.463Z,5.78
2019-03-16T23:59:58.178Z,5.75
